sensor_id;sensor_type;location;lat;lon;timestamp;temperature;humidity
16477;DHT22;8349;50.928;6.376;2023-02-14T04:01:56;1.30;99.90
16477;DHT22;8349;50.928;6.376;2023-02-14T04:04:27;1.30;99.90
16477;DHT22;8349;50.928;6.376;2023-02-14T04:06:56;1.20;99.90
16477;DHT22;8349;50.928;6.376;2023-02-14T04:09:23;1.20;99.90
16477;DHT22;8349;50.928;6.376;2023-02-14T04:11:50;1.20;99.90
16477;DHT22;8349;50.928;6.376;2023-02-14T04:14:16;1.20;99.90
16477;DHT22;8349;50.928;6.376;2023-02-14T04:16:43;1.20;99.90
16477;DHT22;8349;50.928;6.376;2023-02-14T04:19:29;1.10;99.90
16477;DHT22;8349;50.928;6.376;2023-02-14T04:21:56;1.10;99.90
16477;DHT22;8349;50.928;6.376;2023-02-14T04:24:23;1.00;99.90
16477;DHT22;8349;50.928;6.376;2023-02-14T04:26:49;0.90;99.90
16477;DHT22;8349;50.928;6.376;2023-02-14T04:29:34;0.90;99.90
16477;DHT22;8349;50.928;6.376;2023-02-14T04:32:01;0.90;99.90
16477;DHT22;8349;50.928;6.376;2023-02-14T04:34:28;0.90;99.90
16477;DHT22;8349;50.928;6.376;2023-02-14T04:36:56;0.90;99.90
16477;DHT22;8349;50.928;6.376;2023-02-14T04:39:23;0.80;99.90
16477;DHT22;8349;50.928;6.376;2023-02-14T04:41:49;0.80;99.90
16477;DHT22;8349;50.928;6.376;2023-02-14T04:44:16;0.90;99.90
16477;DHT22;8349;50.928;6.376;2023-02-14T04:46:43;0.80;99.90
16477;DHT22;8349;50.928;6.376;2023-02-14T04:49:10;0.70;99.90
16477;DHT22;8349;50.928;6.376;2023-02-14T04:51:36;0.80;99.90
16477;DHT22;8349;50.928;6.376;2023-02-14T04:54:05;0.70;99.90
16477;DHT22;8349;50.928;6.376;2023-02-14T04:56:31;0.70;99.90
16477;DHT22;8349;50.928;6.376;2023-02-14T04:58:58;0.70;99.90
16477;DHT22;8349;50.928;6.376;2023-02-14T05:01:25;0.60;99.90
16477;DHT22;8349;50.928;6.376;2023-02-14T05:03:52;0.70;99.90
16477;DHT22;8349;50.928;6.376;2023-02-14T05:06:19;0.60;99.90
16477;DHT22;8349;50.928;6.376;2023-02-14T05:08:45;0.60;99.90
16477;DHT22;8349;50.928;6.376;2023-02-14T05:11:14;0.70;99.90
16477;DHT22;8349;50.928;6.376;2023-02-14T05:13:41;0.70;99.90
16477;DHT22;8349;50.928;6.376;2023-02-14T05:16:07;0.70;99.90
16477;DHT22;8349;50.928;6.376;2023-02-14T05:18:34;0.70;99.90
16477;DHT22;8349;50.928;6.376;2023-02-14T05:21:01;0.70;99.90
16477;DHT22;8349;50.928;6.376;2023-02-14T05:23:28;0.60;99.90
16477;DHT22;8349;50.928;6.376;2023-02-14T05:25:55;0.60;99.90
16477;DHT22;8349;50.928;6.376;2023-02-14T05:28:23;0.70;99.90
16477;DHT22;8349;50.928;6.376;2023-02-14T05:30:50;0.70;99.90
16477;DHT22;8349;50.928;6.376;2023-02-14T05:33:17;0.80;99.90
16477;DHT22;8349;50.928;6.376;2023-02-14T05:35:44;0.70;99.90
16477;DHT22;8349;50.928;6.376;2023-02-14T05:38:11;0.60;99.90
16477;DHT22;8349;50.928;6.376;2023-02-14T05:40:38;0.60;99.90
16477;DHT22;8349;50.928;6.376;2023-02-14T05:43:05;0.60;99.90
16477;DHT22;8349;50.928;6.376;2023-02-14T05:45:33;0.60;99.90
16477;DHT22;8349;50.928;6.376;2023-02-14T05:48:00;0.60;99.90
16477;DHT22;8349;50.928;6.376;2023-02-14T05:50:27;0.60;99.90
16477;DHT22;8349;50.928;6.376;2023-02-14T05:52:55;0.50;99.90
16477;DHT22;8349;50.928;6.376;2023-02-14T05:55:21;0.50;99.90
16477;DHT22;8349;50.928;6.376;2023-02-14T05:57:49;0.50;99.90
16477;DHT22;8349;50.928;6.376;2023-02-14T06:00:16;0.50;99.90
16477;DHT22;8349;50.928;6.376;2023-02-14T06:02:44;0.40;99.90
16477;DHT22;8349;50.928;6.376;2023-02-14T06:05:11;0.40;99.90
16477;DHT22;8349;50.928;6.376;2023-02-14T06:07:39;0.40;99.90
16477;DHT22;8349;50.928;6.376;2023-02-14T06:10:08;0.40;99.90
16477;DHT22;8349;50.928;6.376;2023-02-14T06:12:34;0.40;99.90
16477;DHT22;8349;50.928;6.376;2023-02-14T06:15:01;0.40;99.90
16477;DHT22;8349;50.928;6.376;2023-02-14T06:17:28;0.50;99.90
16477;DHT22;8349;50.928;6.376;2023-02-14T06:19:56;0.40;99.90
16477;DHT22;8349;50.928;6.376;2023-02-14T06:22:23;0.40;99.90
16477;DHT22;8349;50.928;6.376;2023-02-14T06:24:50;0.30;99.90
16477;DHT22;8349;50.928;6.376;2023-02-14T06:27:17;0.30;99.90
16477;DHT22;8349;50.928;6.376;2023-02-14T06:29:43;0.30;99.90
16477;DHT22;8349;50.928;6.376;2023-02-14T06:32:10;0.40;99.90
16477;DHT22;8349;50.928;6.376;2023-02-14T06:37:06;0.40;99.90
16477;DHT22;8349;50.928;6.376;2023-02-14T06:39:33;0.40;99.90
16477;DHT22;8349;50.928;6.376;2023-02-14T06:42:00;0.50;99.90
16477;DHT22;8349;50.928;6.376;2023-02-14T06:44:27;-0.50;99.90
16477;DHT22;8349;50.928;6.376;2023-02-14T06:46:53;0.60;99.90
16477;DHT22;8349;50.928;6.376;2023-02-14T06:49:20;0.70;99.90
16477;DHT22;8349;50.928;6.376;2023-02-14T06:51:48;0.70;99.90
16477;DHT22;8349;50.928;6.376;2023-02-14T06:54:16;0.70;99.90
16477;DHT22;8349;50.928;6.376;2023-02-14T06:56:43;0.70;99.90
16477;DHT22;8349;50.928;6.376;2023-02-14T06:59:10;0.70;99.90
16477;DHT22;8349;50.928;6.376;2023-02-14T07:01:37;0.60;99.90
16477;DHT22;8349;50.928;6.376;2023-02-14T07:04:04;0.60;99.90
16477;DHT22;8349;50.928;6.376;2023-02-14T07:06:31;0.60;99.90
16477;DHT22;8349;50.928;6.376;2023-02-14T07:08:57;0.60;99.90
16477;DHT22;8349;50.928;6.376;2023-02-14T07:11:26;0.60;99.90
16477;DHT22;8349;50.928;6.376;2023-02-14T07:13:53;0.70;99.90
16477;DHT22;8349;50.928;6.376;2023-02-14T07:16:19;0.80;99.90
16477;DHT22;8349;50.928;6.376;2023-02-14T07:18:46;0.80;99.90
16477;DHT22;8349;50.928;6.376;2023-02-14T07:23:40;0.90;99.90
16477;DHT22;8349;50.928;6.376;2023-02-14T07:26:10;0.90;99.90
16477;DHT22;8349;50.928;6.376;2023-02-14T07:28:44;1.00;99.90
16477;DHT22;8349;50.928;6.376;2023-02-14T07:31:10;1.00;99.90
16477;DHT22;8349;50.928;6.376;2023-02-14T07:33:37;1.10;99.90
16477;DHT22;8349;50.928;6.376;2023-02-14T07:36:04;1.10;99.90
16477;DHT22;8349;50.928;6.376;2023-02-14T07:38:31;1.20;99.90
16477;DHT22;8349;50.928;6.376;2023-02-14T07:40:58;1.20;99.90
16477;DHT22;8349;50.928;6.376;2023-02-14T07:43:24;1.20;99.90
16477;DHT22;8349;50.928;6.376;2023-02-14T07:45:53;1.30;99.90
16477;DHT22;8349;50.928;6.376;2023-02-14T07:48:19;1.40;99.90
16477;DHT22;8349;50.928;6.376;2023-02-14T07:50:47;1.40;99.90
16477;DHT22;8349;50.928;6.376;2023-02-14T07:53:14;1.50;99.90
16477;DHT22;8349;50.928;6.376;2023-02-14T07:55:40;1.60;99.90
16477;DHT22;8349;50.928;6.376;2023-02-14T07:58:07;1.70;99.90
16477;DHT22;8349;50.928;6.376;2023-02-14T08:00:34;1.80;99.90
16477;DHT22;8349;50.928;6.376;2023-02-14T08:03:02;1.80;99.90
16477;DHT22;8349;50.928;6.376;2023-02-14T08:05:29;1.90;99.90
16477;DHT22;8349;50.928;6.376;2023-02-14T08:07:56;2.00;99.90
16477;DHT22;8349;50.928;6.376;2023-02-14T08:10:22;2.10;99.90
16477;DHT22;8349;50.928;6.376;2023-02-14T08:12:49;2.20;99.90
16477;DHT22;8349;50.928;6.376;2023-02-14T08:15:24;2.30;99.90
16477;DHT22;8349;50.928;6.376;2023-02-14T08:18:10;2.40;99.90
16477;DHT22;8349;50.928;6.376;2023-02-14T08:20:37;2.60;99.90
16477;DHT22;8349;50.928;6.376;2023-02-14T08:23:04;2.70;99.90
16477;DHT22;8349;50.928;6.376;2023-02-14T08:25:30;2.80;99.90
16477;DHT22;8349;50.928;6.376;2023-02-14T08:27:57;2.90;99.90
16477;DHT22;8349;50.928;6.376;2023-02-14T08:30:24;2.90;99.90
16477;DHT22;8349;50.928;6.376;2023-02-14T08:32:52;3.00;99.90
16477;DHT22;8349;50.928;6.376;2023-02-14T08:35:20;3.10;99.90
16477;DHT22;8349;50.928;6.376;2023-02-14T08:37:47;3.10;99.90
16477;DHT22;8349;50.928;6.376;2023-02-14T08:40:13;3.20;99.90
16477;DHT22;8349;50.928;6.376;2023-02-14T08:42:40;3.30;99.90
16477;DHT22;8349;50.928;6.376;2023-02-14T08:45:07;3.40;99.90
16477;DHT22;8349;50.928;6.376;2023-02-14T08:47:35;3.50;99.90
16477;DHT22;8349;50.928;6.376;2023-02-14T08:50:03;3.70;99.90
16477;DHT22;8349;50.928;6.376;2023-02-14T08:52:31;3.80;99.90
16477;DHT22;8349;50.928;6.376;2023-02-14T08:54:58;4.00;99.90
16477;DHT22;8349;50.928;6.376;2023-02-14T08:57:25;4.20;99.90
16477;DHT22;8349;50.928;6.376;2023-02-14T08:59:52;4.40;99.90
16477;DHT22;8349;50.928;6.376;2023-02-14T09:02:19;4.50;99.90
16477;DHT22;8349;50.928;6.376;2023-02-14T09:04:46;4.70;99.90
16477;DHT22;8349;50.928;6.376;2023-02-14T09:07:13;4.80;99.90
16477;DHT22;8349;50.928;6.376;2023-02-14T09:09:41;4.80;99.90
16477;DHT22;8349;50.928;6.376;2023-02-14T09:12:08;4.90;99.90
16477;DHT22;8349;50.928;6.376;2023-02-14T09:14:36;5.00;99.90
16477;DHT22;8349;50.928;6.376;2023-02-14T09:17:06;5.20;99.90
16477;DHT22;8349;50.928;6.376;2023-02-14T09:19:33;5.20;99.90
16477;DHT22;8349;50.928;6.376;2023-02-14T09:22:00;5.30;99.90
16477;DHT22;8349;50.928;6.376;2023-02-14T09:24:28;5.40;99.90
16477;DHT22;8349;50.928;6.376;2023-02-14T09:26:57;5.40;99.90
16477;DHT22;8349;50.928;6.376;2023-02-14T09:29:24;5.50;99.90
16477;DHT22;8349;50.928;6.376;2023-02-14T09:31:51;5.60;99.90
16477;DHT22;8349;50.928;6.376;2023-02-14T09:34:18;5.70;99.90
16477;DHT22;8349;50.928;6.376;2023-02-14T09:37:02;5.80;99.90
16477;DHT22;8349;50.928;6.376;2023-02-14T09:39:29;5.90;99.90
16477;DHT22;8349;50.928;6.376;2023-02-14T09:42:02;6.10;99.90
16477;DHT22;8349;50.928;6.376;2023-02-14T09:44:35;6.20;99.90
16477;DHT22;8349;50.928;6.376;2023-02-14T09:47:05;6.40;99.90
16477;DHT22;8349;50.928;6.376;2023-02-14T09:49:34;6.50;99.90
16477;DHT22;8349;50.928;6.376;2023-02-14T09:52:02;6.60;99.90
16477;DHT22;8349;50.928;6.376;2023-02-14T09:54:30;6.80;99.90
16477;DHT22;8349;50.928;6.376;2023-02-14T09:56:59;7.00;99.90
16477;DHT22;8349;50.928;6.376;2023-02-14T09:59:30;7.20;99.90
16477;DHT22;8349;50.928;6.376;2023-02-14T10:01:59;7.30;99.90
16477;DHT22;8349;50.928;6.376;2023-02-14T10:04:30;7.30;99.90
16477;DHT22;8349;50.928;6.376;2023-02-14T10:06:59;7.30;99.90
16477;DHT22;8349;50.928;6.376;2023-02-14T10:12:00;7.60;99.90
16477;DHT22;8349;50.928;6.376;2023-02-14T10:16:57;7.90;99.90
16477;DHT22;8349;50.928;6.376;2023-02-14T10:19:25;8.10;99.90
16477;DHT22;8349;50.928;6.376;2023-02-14T10:21:54;8.40;99.90
16477;DHT22;8349;50.928;6.376;2023-02-14T10:24:23;8.50;99.90
16477;DHT22;8349;50.928;6.376;2023-02-14T10:26:52;8.60;99.90
16477;DHT22;8349;50.928;6.376;2023-02-14T10:29:22;8.80;99.90
16477;DHT22;8349;50.928;6.376;2023-02-14T10:31:49;8.90;99.90
16477;DHT22;8349;50.928;6.376;2023-02-14T10:34:23;8.90;99.90
16477;DHT22;8349;50.928;6.376;2023-02-14T10:36:55;9.00;99.90
16477;DHT22;8349;50.928;6.376;2023-02-14T10:39:42;9.10;99.90
16477;DHT22;8349;50.928;6.376;2023-02-14T10:42:13;9.30;99.90
16477;DHT22;8349;50.928;6.376;2023-02-14T10:44:43;9.50;99.90
16477;DHT22;8349;50.928;6.376;2023-02-14T10:47:18;9.60;99.90
16477;DHT22;8349;50.928;6.376;2023-02-14T10:49:53;10.90;99.90
16477;DHT22;8349;50.928;6.376;2023-02-14T10:52:21;16.60;99.90
16477;DHT22;8349;50.928;6.376;2023-02-14T10:54:50;20.60;99.90
16477;DHT22;8349;50.928;6.376;2023-02-14T10:57:19;23.60;99.90
16477;DHT22;8349;50.928;6.376;2023-02-14T11:02:15;25.70;99.90
16477;DHT22;8349;50.928;6.376;2023-02-14T11:04:43;26.20;99.90
16477;DHT22;8349;50.928;6.376;2023-02-14T11:07:13;27.30;99.90
16477;DHT22;8349;50.928;6.376;2023-02-14T11:09:40;27.70;99.90
16477;DHT22;8349;50.928;6.376;2023-02-14T11:12:07;29.90;99.90
16477;DHT22;8349;50.928;6.376;2023-02-14T11:14:35;29.60;99.90
16477;DHT22;8349;50.928;6.376;2023-02-14T11:17:25;30.30;99.90
16477;DHT22;8349;50.928;6.376;2023-02-14T11:19:55;30.30;99.90
16477;DHT22;8349;50.928;6.376;2023-02-14T11:22:28;29.80;99.90
16477;DHT22;8349;50.928;6.376;2023-02-14T11:25:01;30.40;99.90
16477;DHT22;8349;50.928;6.376;2023-02-14T11:27:28;31.30;99.90
16477;DHT22;8349;50.928;6.376;2023-02-14T11:29:55;31.10;99.90
16477;DHT22;8349;50.928;6.376;2023-02-14T11:32:22;31.30;99.90
16477;DHT22;8349;50.928;6.376;2023-02-14T11:34:51;31.70;99.90
16477;DHT22;8349;50.928;6.376;2023-02-14T11:37:23;32.60;99.90
16477;DHT22;8349;50.928;6.376;2023-02-14T11:39:53;33.70;99.90
16477;DHT22;8349;50.928;6.376;2023-02-14T11:42:31;34.80;99.90
16477;DHT22;8349;50.928;6.376;2023-02-14T11:44:58;35.00;99.90
16477;DHT22;8349;50.928;6.376;2023-02-14T11:47:26;34.70;99.90
16477;DHT22;8349;50.928;6.376;2023-02-14T11:49:55;34.40;99.90
16477;DHT22;8349;50.928;6.376;2023-02-14T11:52:23;34.50;99.90
16477;DHT22;8349;50.928;6.376;2023-02-14T11:54:56;33.60;99.90
16477;DHT22;8349;50.928;6.376;2023-02-14T11:57:23;33.60;99.90
16477;DHT22;8349;50.928;6.376;2023-02-14T11:59:54;33.50;99.90
16477;DHT22;8349;50.928;6.376;2023-02-14T12:02:39;33.60;99.90
16477;DHT22;8349;50.928;6.376;2023-02-14T12:05:14;34.50;99.90
16477;DHT22;8349;50.928;6.376;2023-02-14T12:07:44;35.40;99.90
16477;DHT22;8349;50.928;6.376;2023-02-14T12:10:21;36.00;99.90
16477;DHT22;8349;50.928;6.376;2023-02-14T12:13:00;35.70;99.90
16477;DHT22;8349;50.928;6.376;2023-02-14T12:15:33;34.60;99.90
16477;DHT22;8349;50.928;6.376;2023-02-14T12:18:04;34.60;99.90
16477;DHT22;8349;50.928;6.376;2023-02-14T12:20:39;35.40;99.90
16477;DHT22;8349;50.928;6.376;2023-02-14T12:23:44;35.00;99.90
16477;DHT22;8349;50.928;6.376;2023-02-14T12:26:30;34.90;99.90
16477;DHT22;8349;50.928;6.376;2023-02-14T12:29:01;34.90;99.90
16477;DHT22;8349;50.928;6.376;2023-02-14T12:31:29;33.90;99.90
16477;DHT22;8349;50.928;6.376;2023-02-14T12:33:57;34.50;99.90
16477;DHT22;8349;50.928;6.376;2023-02-14T12:36:33;34.80;99.90
16477;DHT22;8349;50.928;6.376;2023-02-14T12:39:25;35.60;99.90
16477;DHT22;8349;50.928;6.376;2023-02-14T12:41:58;34.30;99.90
16477;DHT22;8349;50.928;6.376;2023-02-14T12:44:29;33.80;99.90
16477;DHT22;8349;50.928;6.376;2023-02-14T12:47:06;32.90;99.90
16477;DHT22;8349;50.928;6.376;2023-02-14T12:49:44;33.00;99.90
16477;DHT22;8349;50.928;6.376;2023-02-14T12:52:24;33.90;99.90
16477;DHT22;8349;50.928;6.376;2023-02-14T12:54:57;34.90;99.90
16477;DHT22;8349;50.928;6.376;2023-02-14T12:57:30;33.90;99.90
16477;DHT22;8349;50.928;6.376;2023-02-14T13:00:00;34.00;99.90
16477;DHT22;8349;50.928;6.376;2023-02-14T13:02:36;33.30;99.70
16477;DHT22;8349;50.928;6.376;2023-02-14T13:05:12;33.80;99.90
16477;DHT22;8349;50.928;6.376;2023-02-14T13:07:45;33.80;99.90
16477;DHT22;8349;50.928;6.376;2023-02-14T13:10:18;33.90;99.90
16477;DHT22;8349;50.928;6.376;2023-02-14T13:12:53;32.90;99.90
16477;DHT22;8349;50.928;6.376;2023-02-14T13:15:26;33.00;99.90
16477;DHT22;8349;50.928;6.376;2023-02-14T13:17:55;32.80;99.90
16477;DHT22;8349;50.928;6.376;2023-02-14T13:23:11;32.10;99.90
16477;DHT22;8349;50.928;6.376;2023-02-14T13:25:41;31.70;99.90
16477;DHT22;8349;50.928;6.376;2023-02-14T13:28:15;33.00;99.90
16477;DHT22;8349;50.928;6.376;2023-02-14T13:30:43;33.00;99.90
16477;DHT22;8349;50.928;6.376;2023-02-14T13:33:21;33.20;99.90
16477;DHT22;8349;50.928;6.376;2023-02-14T13:36:02;32.20;99.90
16477;DHT22;8349;50.928;6.376;2023-02-14T13:38:45;32.60;99.90
16477;DHT22;8349;50.928;6.376;2023-02-14T13:41:16;33.00;99.90
16477;DHT22;8349;50.928;6.376;2023-02-14T13:43:55;31.70;99.10
16477;DHT22;8349;50.928;6.376;2023-02-14T13:49:16;31.40;99.30
16477;DHT22;8349;50.928;6.376;2023-02-14T13:51:46;31.70;99.90
16477;DHT22;8349;50.928;6.376;2023-02-14T13:54:21;31.60;99.90
16477;DHT22;8349;50.928;6.376;2023-02-14T13:56:57;31.50;99.90
16477;DHT22;8349;50.928;6.376;2023-02-14T13:59:28;30.40;99.50
16477;DHT22;8349;50.928;6.376;2023-02-14T14:02:29;29.90;99.60
16477;DHT22;8349;50.928;6.376;2023-02-14T14:04:56;29.10;99.60
16477;DHT22;8349;50.928;6.376;2023-02-14T14:07:24;29.00;99.90
16477;DHT22;8349;50.928;6.376;2023-02-14T14:09:55;28.50;99.60
16477;DHT22;8349;50.928;6.376;2023-02-14T14:12:35;28.00;99.60
16477;DHT22;8349;50.928;6.376;2023-02-14T14:20:46;26.20;99.90
16477;DHT22;8349;50.928;6.376;2023-02-14T14:28:46;26.30;99.90
16477;DHT22;8349;50.928;6.376;2023-02-14T14:31:13;26.50;99.90
16477;DHT22;8349;50.928;6.376;2023-02-14T14:33:40;26.70;99.10
16477;DHT22;8349;50.928;6.376;2023-02-14T14:36:08;25.90;99.20
16477;DHT22;8349;50.928;6.376;2023-02-14T14:38:47;26.40;99.20
16477;DHT22;8349;50.928;6.376;2023-02-14T14:41:15;25.70;98.40
16477;DHT22;8349;50.928;6.376;2023-02-14T14:43:41;25.10;98.30
16477;DHT22;8349;50.928;6.376;2023-02-14T14:46:09;26.30;98.70
16477;DHT22;8349;50.928;6.376;2023-02-14T14:48:37;26.30;99.10
16477;DHT22;8349;50.928;6.376;2023-02-14T14:51:04;26.10;97.90
16477;DHT22;8349;50.928;6.376;2023-02-14T14:53:34;25.50;98.20
16477;DHT22;8349;50.928;6.376;2023-02-14T14:56:02;25.20;98.60
16477;DHT22;8349;50.928;6.376;2023-02-14T14:58:31;25.80;98.50
16477;DHT22;8349;50.928;6.376;2023-02-14T15:00:58;25.70;97.90
16477;DHT22;8349;50.928;6.376;2023-02-14T15:03:26;24.70;98.10
16477;DHT22;8349;50.928;6.376;2023-02-14T15:06:01;24.80;98.20
16477;DHT22;8349;50.928;6.376;2023-02-14T15:08:28;23.80;98.20
16477;DHT22;8349;50.928;6.376;2023-02-14T15:11:00;23.50;98.80
16477;DHT22;8349;50.928;6.376;2023-02-14T15:13:32;23.70;99.20
16477;DHT22;8349;50.928;6.376;2023-02-14T15:16:22;24.40;99.50
16477;DHT22;8349;50.928;6.376;2023-02-14T15:18:49;24.50;99.90
16477;DHT22;8349;50.928;6.376;2023-02-14T15:21:16;24.00;99.90
16477;DHT22;8349;50.928;6.376;2023-02-14T15:23:43;23.50;99.90
16477;DHT22;8349;50.928;6.376;2023-02-14T15:26:16;23.30;99.90
16477;DHT22;8349;50.928;6.376;2023-02-14T15:28:43;22.80;99.90
16477;DHT22;8349;50.928;6.376;2023-02-14T15:31:18;22.50;99.90
16477;DHT22;8349;50.928;6.376;2023-02-14T15:33:45;22.40;99.90
16477;DHT22;8349;50.928;6.376;2023-02-14T15:36:14;22.50;99.90
16477;DHT22;8349;50.928;6.376;2023-02-14T15:38:43;23.10;99.90
16477;DHT22;8349;50.928;6.376;2023-02-14T15:41:10;23.40;99.90
16477;DHT22;8349;50.928;6.376;2023-02-14T15:43:39;23.40;99.90
16477;DHT22;8349;50.928;6.376;2023-02-14T15:46:15;23.30;99.90
16477;DHT22;8349;50.928;6.376;2023-02-14T15:48:43;23.00;99.90
16477;DHT22;8349;50.928;6.376;2023-02-14T15:51:14;22.90;99.90
16477;DHT22;8349;50.928;6.376;2023-02-14T15:53:41;22.70;99.90
16477;DHT22;8349;50.928;6.376;2023-02-14T15:56:10;22.30;99.90
16477;DHT22;8349;50.928;6.376;2023-02-14T15:58:37;21.90;99.90
16477;DHT22;8349;50.928;6.376;2023-02-14T16:01:06;21.40;99.90
16477;DHT22;8349;50.928;6.376;2023-02-14T16:03:34;20.90;99.90
16477;DHT22;8349;50.928;6.376;2023-02-14T16:06:02;20.50;99.90
16477;DHT22;8349;50.928;6.376;2023-02-14T16:08:30;20.50;99.90
16477;DHT22;8349;50.928;6.376;2023-02-14T16:10:57;20.20;99.90
16477;DHT22;8349;50.928;6.376;2023-02-14T16:13:28;20.10;99.90
16477;DHT22;8349;50.928;6.376;2023-02-14T16:15:55;19.80;99.90
16477;DHT22;8349;50.928;6.376;2023-02-14T16:18:32;19.20;99.90
16477;DHT22;8349;50.928;6.376;2023-02-14T16:21:08;18.50;99.90
16477;DHT22;8349;50.928;6.376;2023-02-14T16:23:36;17.90;99.90
16477;DHT22;8349;50.928;6.376;2023-02-14T16:26:04;17.60;99.90
16477;DHT22;8349;50.928;6.376;2023-02-14T16:28:31;17.40;99.90
16477;DHT22;8349;50.928;6.376;2023-02-14T16:30:59;16.90;99.90
16477;DHT22;8349;50.928;6.376;2023-02-14T16:33:27;16.50;99.90
16477;DHT22;8349;50.928;6.376;2023-02-14T16:35:56;16.10;99.90
16477;DHT22;8349;50.928;6.376;2023-02-14T16:38:26;15.60;99.90
16477;DHT22;8349;50.928;6.376;2023-02-14T16:40:53;15.10;99.90
16477;DHT22;8349;50.928;6.376;2023-02-14T16:43:20;14.80;99.90
16477;DHT22;8349;50.928;6.376;2023-02-14T16:45:47;14.50;99.90
16477;DHT22;8349;50.928;6.376;2023-02-14T16:48:13;14.10;99.90
16477;DHT22;8349;50.928;6.376;2023-02-14T16:50:41;13.80;99.90
16477;DHT22;8349;50.928;6.376;2023-02-14T16:53:13;13.50;99.90
16477;DHT22;8349;50.928;6.376;2023-02-14T16:55:43;13.20;99.90
16477;DHT22;8349;50.928;6.376;2023-02-14T16:58:09;13.00;99.90
16477;DHT22;8349;50.928;6.376;2023-02-14T17:00:39;12.80;99.90
16477;DHT22;8349;50.928;6.376;2023-02-14T17:03:06;12.60;99.90
16477;DHT22;8349;50.928;6.376;2023-02-14T17:05:36;12.50;99.90
16477;DHT22;8349;50.928;6.376;2023-02-14T17:08:03;12.30;99.90
16477;DHT22;8349;50.928;6.376;2023-02-14T17:10:33;12.20;99.90
16477;DHT22;8349;50.928;6.376;2023-02-14T17:13:00;11.90;99.90
16477;DHT22;8349;50.928;6.376;2023-02-14T17:15:27;11.70;99.90
16477;DHT22;8349;50.928;6.376;2023-02-14T17:17:55;11.70;99.90
16477;DHT22;8349;50.928;6.376;2023-02-14T17:20:23;11.50;99.90
16477;DHT22;8349;50.928;6.376;2023-02-14T17:22:50;11.30;99.90
16477;DHT22;8349;50.928;6.376;2023-02-14T17:25:17;11.20;99.90
16477;DHT22;8349;50.928;6.376;2023-02-14T17:27:45;11.00;99.90
16477;DHT22;8349;50.928;6.376;2023-02-14T17:30:13;10.90;99.90
16477;DHT22;8349;50.928;6.376;2023-02-14T17:32:40;10.70;99.90
16477;DHT22;8349;50.928;6.376;2023-02-14T17:35:07;10.60;99.90
16477;DHT22;8349;50.928;6.376;2023-02-14T17:37:34;10.50;99.90
16477;DHT22;8349;50.928;6.376;2023-02-14T17:40:01;10.40;99.90
16477;DHT22;8349;50.928;6.376;2023-02-14T17:42:29;10.30;99.90
16477;DHT22;8349;50.928;6.376;2023-02-14T17:44:58;10.20;99.90
16477;DHT22;8349;50.928;6.376;2023-02-14T17:47:24;10.10;99.90
16477;DHT22;8349;50.928;6.376;2023-02-14T17:49:51;10.10;99.90
16477;DHT22;8349;50.928;6.376;2023-02-14T17:52:18;10.00;99.90
16477;DHT22;8349;50.928;6.376;2023-02-14T17:54:46;9.80;99.90
16477;DHT22;8349;50.928;6.376;2023-02-14T17:57:13;9.70;99.90
16477;DHT22;8349;50.928;6.376;2023-02-14T17:59:40;9.60;99.90
16477;DHT22;8349;50.928;6.376;2023-02-14T18:02:08;9.60;99.90
16477;DHT22;8349;50.928;6.376;2023-02-14T18:04:35;9.50;99.90
16477;DHT22;8349;50.928;6.376;2023-02-14T18:07:02;9.40;99.90
16477;DHT22;8349;50.928;6.376;2023-02-14T18:09:29;9.30;99.90
16477;DHT22;8349;50.928;6.376;2023-02-14T18:11:55;9.20;99.90
16477;DHT22;8349;50.928;6.376;2023-02-14T18:14:22;9.10;99.90
16477;DHT22;8349;50.928;6.376;2023-02-14T18:16:49;9.00;99.90
16477;DHT22;8349;50.928;6.376;2023-02-14T18:19:17;9.00;99.90
16477;DHT22;8349;50.928;6.376;2023-02-14T18:21:44;8.90;99.90
16477;DHT22;8349;50.928;6.376;2023-02-14T18:24:11;8.90;99.90
16477;DHT22;8349;50.928;6.376;2023-02-14T18:26:40;8.80;99.90
16477;DHT22;8349;50.928;6.376;2023-02-14T18:29:07;8.80;99.90
16477;DHT22;8349;50.928;6.376;2023-02-14T18:31:36;8.70;99.90
16477;DHT22;8349;50.928;6.376;2023-02-14T18:34:03;8.60;99.90
16477;DHT22;8349;50.928;6.376;2023-02-14T18:36:32;8.60;99.90
16477;DHT22;8349;50.928;6.376;2023-02-14T18:39:00;8.60;99.90
16477;DHT22;8349;50.928;6.376;2023-02-14T18:41:27;8.60;99.90
16477;DHT22;8349;50.928;6.376;2023-02-14T18:43:54;8.60;99.90
16477;DHT22;8349;50.928;6.376;2023-02-14T18:46:22;8.50;99.90
16477;DHT22;8349;50.928;6.376;2023-02-14T18:48:49;8.40;99.90
16477;DHT22;8349;50.928;6.376;2023-02-14T18:51:16;8.40;99.90
16477;DHT22;8349;50.928;6.376;2023-02-14T18:53:45;8.30;99.90
16477;DHT22;8349;50.928;6.376;2023-02-14T18:56:12;8.30;99.90
16477;DHT22;8349;50.928;6.376;2023-02-14T18:58:40;8.20;99.90
16477;DHT22;8349;50.928;6.376;2023-02-14T19:01:07;8.20;99.90
16477;DHT22;8349;50.928;6.376;2023-02-14T19:03:34;8.10;99.90
16477;DHT22;8349;50.928;6.376;2023-02-14T19:06:01;8.00;99.90
16477;DHT22;8349;50.928;6.376;2023-02-14T19:08:28;7.90;99.90
16477;DHT22;8349;50.928;6.376;2023-02-14T19:10:57;7.90;99.90
16477;DHT22;8349;50.928;6.376;2023-02-14T19:13:24;7.80;99.90
16477;DHT22;8349;50.928;6.376;2023-02-14T19:15:53;7.70;99.90
16477;DHT22;8349;50.928;6.376;2023-02-14T19:18:20;7.60;99.90
16477;DHT22;8349;50.928;6.376;2023-02-14T19:20:47;7.50;99.90
16477;DHT22;8349;50.928;6.376;2023-02-14T19:23:14;7.50;99.90
16477;DHT22;8349;50.928;6.376;2023-02-14T19:25:41;7.30;99.90
16477;DHT22;8349;50.928;6.376;2023-02-14T19:28:09;7.40;99.90
16477;DHT22;8349;50.928;6.376;2023-02-14T19:30:37;7.30;99.90
16477;DHT22;8349;50.928;6.376;2023-02-14T19:33:04;7.20;99.90
16477;DHT22;8349;50.928;6.376;2023-02-14T19:35:31;7.10;99.90
16477;DHT22;8349;50.928;6.376;2023-02-14T19:37:58;7.00;99.90
16477;DHT22;8349;50.928;6.376;2023-02-14T19:40:27;6.90;99.90
16477;DHT22;8349;50.928;6.376;2023-02-14T19:42:55;6.80;99.90
16477;DHT22;8349;50.928;6.376;2023-02-14T19:45:23;6.80;99.90
16477;DHT22;8349;50.928;6.376;2023-02-14T19:47:51;6.70;99.90
16477;DHT22;8349;50.928;6.376;2023-02-14T19:50:18;6.70;99.90
16477;DHT22;8349;50.928;6.376;2023-02-14T19:52:45;6.70;99.90
16477;DHT22;8349;50.928;6.376;2023-02-14T19:55:18;6.70;99.90
16477;DHT22;8349;50.928;6.376;2023-02-14T19:57:45;6.60;99.90
16477;DHT22;8349;50.928;6.376;2023-02-14T20:00:13;6.50;99.90
16477;DHT22;8349;50.928;6.376;2023-02-14T20:02:42;6.40;99.90
16477;DHT22;8349;50.928;6.376;2023-02-14T20:05:12;6.40;99.90
16477;DHT22;8349;50.928;6.376;2023-02-14T20:07:39;6.40;99.90
16477;DHT22;8349;50.928;6.376;2023-02-14T20:10:08;6.30;99.90
16477;DHT22;8349;50.928;6.376;2023-02-14T20:12:35;6.30;99.90
16477;DHT22;8349;50.928;6.376;2023-02-14T20:15:02;6.20;99.90
16477;DHT22;8349;50.928;6.376;2023-02-14T20:17:29;6.10;99.90
16477;DHT22;8349;50.928;6.376;2023-02-14T20:19:58;6.00;99.90
16477;DHT22;8349;50.928;6.376;2023-02-14T20:22:25;6.00;99.90
16477;DHT22;8349;50.928;6.376;2023-02-14T20:24:52;6.00;99.90
16477;DHT22;8349;50.928;6.376;2023-02-14T20:27:19;5.90;99.90
16477;DHT22;8349;50.928;6.376;2023-02-14T20:29:45;5.90;99.90
16477;DHT22;8349;50.928;6.376;2023-02-14T20:32:13;5.80;99.90
16477;DHT22;8349;50.928;6.376;2023-02-14T20:34:40;5.70;99.90
16477;DHT22;8349;50.928;6.376;2023-02-14T20:37:09;5.70;99.90